createdAt,value
2022-10-11T00:01:27.150Z,2.13
2022-10-11T00:03:53.518Z,1.40
2022-10-11T00:06:19.862Z,1.50
2022-10-11T00:08:46.336Z,1.92
2022-10-11T00:11:12.802Z,1.70
2022-10-11T00:13:39.191Z,1.50
2022-10-11T00:16:10.909Z,2.15
2022-10-11T00:18:37.747Z,1.60
2022-10-11T00:21:07.265Z,1.88
2022-10-11T00:23:34.523Z,1.80
2022-10-11T00:26:03.999Z,1.20
2022-10-11T00:28:31.156Z,1.55
2022-10-11T00:30:57.822Z,2.00
2022-10-11T00:33:24.476Z,1.83
2022-10-11T00:35:50.819Z,1.10
2022-10-11T00:38:18.016Z,1.40
2022-10-11T00:40:45.669Z,1.40
2022-10-11T00:43:20.248Z,1.50
2022-10-11T00:45:55.741Z,1.60
2022-10-11T00:48:33.396Z,1.50
2022-10-11T00:51:03.012Z,1.47
2022-10-11T00:53:32.026Z,1.40
2022-10-11T00:56:08.468Z,1.27
2022-10-11T00:58:36.967Z,1.50
2022-10-11T01:01:03.571Z,1.55
2022-10-11T01:03:32.305Z,1.50
2022-10-11T01:05:58.771Z,1.30
2022-10-11T01:08:25.737Z,1.50
2022-10-11T01:10:52.359Z,1.67
2022-10-11T01:13:44.676Z,1.50
2022-10-11T01:16:29.295Z,1.23
2022-10-11T01:19:39.837Z,1.48
2022-10-11T01:22:28.591Z,1.50
2022-10-11T01:25:18.683Z,1.80
2022-10-11T01:28:12.710Z,1.63
2022-10-11T01:30:40.131Z,1.20
2022-10-11T01:33:32.119Z,1.50
2022-10-11T01:36:10.379Z,1.40
2022-10-11T01:38:46.669Z,1.58
2022-10-11T01:41:19.084Z,1.65
2022-10-11T01:43:46.773Z,1.50
2022-10-11T01:46:14.544Z,1.27
2022-10-11T01:48:52.527Z,1.10
2022-10-11T01:51:27.226Z,0.90
2022-10-11T01:54:04.315Z,1.50
2022-10-11T01:57:10.771Z,1.40
2022-10-11T01:59:54.437Z,1.38
2022-10-11T02:02:42.042Z,1.17
2022-10-11T02:05:28.426Z,1.17
2022-10-11T02:08:15.048Z,1.60
2022-10-11T02:11:07.267Z,1.10
2022-10-11T02:13:40.256Z,1.20
2022-10-11T02:16:11.576Z,1.08
2022-10-11T02:18:41.530Z,1.48
2022-10-11T02:21:12.160Z,1.40
2022-10-11T02:23:47.665Z,1.40
2022-10-11T02:26:15.003Z,0.98
2022-10-11T02:28:43.956Z,1.00
2022-10-11T02:31:11.869Z,1.10
2022-10-11T02:33:58.717Z,1.30
2022-10-11T02:36:36.239Z,1.30
2022-10-11T02:39:12.719Z,1.20
2022-10-11T02:41:40.763Z,1.20
2022-10-11T02:44:12.911Z,1.15
2022-10-11T02:46:40.899Z,1.30
2022-10-11T02:49:08.445Z,1.37
2022-10-11T02:51:36.378Z,0.82
2022-10-11T02:54:02.804Z,1.40
2022-10-11T02:56:29.145Z,1.42
2022-10-11T02:58:55.496Z,1.10
2022-10-11T03:01:21.954Z,1.10
2022-10-11T03:03:48.504Z,1.10
2022-10-11T03:06:14.963Z,1.20
2022-10-11T03:08:41.300Z,1.35
2022-10-11T03:11:07.733Z,1.10
2022-10-11T03:13:34.163Z,1.17
2022-10-11T03:16:03.504Z,1.10
2022-10-11T03:18:30.989Z,1.10
2022-10-11T03:20:57.387Z,1.15
2022-10-11T03:23:24.122Z,1.52
2022-10-11T03:25:51.907Z,0.90
2022-10-11T03:28:18.550Z,1.23
2022-10-11T03:30:48.135Z,1.00
2022-10-11T03:33:14.538Z,1.35
2022-10-11T03:35:40.958Z,1.30
2022-10-11T03:38:11.111Z,1.17
2022-10-11T03:40:39.240Z,1.20
2022-10-11T03:43:05.639Z,1.30
2022-10-11T03:45:31.968Z,1.52
2022-10-11T03:47:58.366Z,0.80
2022-10-11T03:50:24.826Z,1.37
2022-10-11T03:52:51.190Z,1.35
2022-10-11T03:55:17.740Z,1.30
2022-10-11T03:57:44.112Z,1.40
2022-10-11T04:00:10.823Z,1.40
2022-10-11T04:02:39.305Z,1.13
2022-10-11T04:05:06.697Z,1.15
2022-10-11T04:07:33.368Z,2.22
2022-10-11T04:09:59.887Z,1.08
2022-10-11T04:12:26.248Z,1.27
2022-10-11T04:14:52.603Z,1.07
2022-10-11T04:17:18.963Z,1.33
2022-10-11T04:19:45.348Z,1.42
2022-10-11T04:22:11.751Z,1.20
2022-10-11T04:24:38.091Z,1.42
2022-10-11T04:27:04.464Z,1.50
2022-10-11T04:29:32.794Z,1.38
2022-10-11T04:31:59.582Z,1.20
2022-10-11T04:34:26.048Z,1.13
2022-10-11T04:36:52.420Z,1.23
2022-10-11T04:39:18.758Z,1.27
2022-10-11T04:41:45.259Z,1.10
2022-10-11T04:44:11.610Z,1.60
2022-10-11T04:46:37.942Z,1.35
2022-10-11T04:49:04.312Z,1.02
2022-10-11T04:51:30.903Z,1.43
2022-10-11T04:53:57.237Z,1.23
2022-10-11T04:56:23.631Z,1.30
2022-10-11T04:58:53.949Z,1.55
2022-10-11T05:01:21.083Z,0.90
2022-10-11T05:03:48.815Z,0.93
2022-10-11T05:06:15.182Z,1.13
2022-10-11T05:08:41.665Z,1.02
2022-10-11T05:11:11.461Z,1.88
2022-10-11T05:13:38.447Z,1.80
2022-10-11T05:16:10.420Z,1.00
2022-10-11T05:18:37.978Z,1.02
2022-10-11T05:21:17.958Z,1.20
2022-10-11T05:23:44.595Z,1.65
2022-10-11T05:26:11.105Z,1.08
2022-10-11T05:28:37.465Z,0.97
2022-10-11T05:31:04.257Z,1.40
2022-10-11T05:33:31.177Z,1.38
2022-10-11T05:35:57.559Z,1.23
2022-10-11T05:38:23.954Z,1.15
2022-10-11T05:40:50.613Z,1.23
2022-10-11T05:43:17.001Z,1.33
2022-10-11T05:45:44.676Z,1.42
2022-10-11T05:48:11.577Z,1.60
2022-10-11T05:50:38.471Z,1.52
2022-10-11T05:53:05.792Z,1.50
2022-10-11T05:55:37.623Z,1.80
2022-10-11T05:58:05.531Z,1.58
2022-10-11T06:00:32.282Z,1.33
2022-10-11T06:02:58.660Z,1.90
2022-10-11T06:05:25.052Z,1.30
2022-10-11T06:07:51.443Z,1.20
2022-10-11T06:10:17.922Z,1.30
2022-10-11T06:12:44.304Z,1.20
2022-10-11T06:15:11.565Z,1.65
2022-10-11T06:17:38.231Z,1.33
2022-10-11T06:20:05.175Z,1.35
2022-10-11T06:22:31.623Z,1.30
2022-10-11T06:24:57.965Z,1.60
2022-10-11T06:27:24.310Z,1.23
2022-10-11T06:29:50.658Z,1.10
2022-10-11T06:32:17.092Z,1.40
2022-10-11T06:34:43.426Z,1.50
2022-10-11T06:37:09.954Z,1.23
2022-10-11T06:39:36.320Z,1.27
2022-10-11T06:42:02.945Z,1.23
2022-10-11T06:44:29.453Z,1.30
2022-10-11T06:46:55.797Z,1.10
2022-10-11T06:49:23.467Z,1.23
2022-10-11T06:51:50.887Z,1.20
2022-10-11T06:54:17.228Z,1.53
2022-10-11T06:56:45.533Z,1.27
2022-10-11T06:59:13.320Z,1.00
2022-10-11T07:01:39.776Z,1.40
2022-10-11T07:04:06.158Z,1.92
2022-10-11T07:06:37.759Z,1.30
2022-10-11T07:09:04.905Z,1.50
2022-10-11T07:11:31.462Z,1.30
2022-10-11T07:14:07.729Z,1.05
2022-10-11T07:16:36.103Z,1.33
2022-10-11T07:19:05.369Z,1.47
2022-10-11T07:21:32.990Z,1.40
2022-10-11T07:24:00.013Z,1.63
2022-10-11T07:26:26.836Z,1.27
2022-10-11T07:28:53.530Z,1.75
2022-10-11T07:31:23.487Z,1.73
2022-10-11T07:33:50.211Z,1.52
2022-10-11T07:36:16.614Z,1.70
2022-10-11T07:38:44.485Z,1.42
2022-10-11T07:41:11.816Z,1.42
2022-10-11T07:43:38.776Z,1.40
2022-10-11T07:46:06.121Z,1.60
2022-10-11T07:48:34.892Z,1.63
2022-10-11T07:51:12.175Z,1.52
2022-10-11T07:53:43.332Z,1.67
2022-10-11T07:56:12.582Z,1.30
2022-10-11T07:58:40.529Z,1.50
2022-10-11T08:01:08.135Z,1.48
2022-10-11T08:03:35.161Z,1.35
2022-10-11T08:06:06.721Z,1.40
2022-10-11T08:08:33.546Z,1.17
2022-10-11T08:11:00.414Z,1.30
2022-10-11T08:13:27.282Z,1.25
2022-10-11T08:15:54.053Z,1.00
2022-10-11T08:18:20.548Z,1.50
2022-10-11T08:20:46.960Z,1.37
2022-10-11T08:23:13.761Z,1.15
2022-10-11T08:25:42.643Z,1.30
2022-10-11T08:28:10.114Z,1.15
2022-10-11T08:30:36.876Z,1.38
2022-10-11T08:33:08.264Z,1.40
2022-10-11T08:35:36.292Z,1.58
2022-10-11T08:38:02.771Z,1.10
2022-10-11T08:40:32.914Z,1.30
2022-10-11T08:43:08.172Z,1.05
2022-10-11T08:45:50.845Z,1.00
2022-10-11T08:48:22.332Z,1.13
2022-10-11T08:50:51.321Z,1.35
2022-10-11T08:53:44.977Z,1.10
2022-10-11T08:56:16.383Z,1.13
2022-10-11T08:58:49.546Z,0.87
2022-10-11T09:01:20.671Z,1.20
2022-10-11T09:03:49.229Z,1.48
2022-10-11T09:06:26.765Z,1.27
2022-10-11T09:09:07.390Z,1.40
2022-10-11T09:12:29.513Z,1.30
2022-10-11T09:14:58.623Z,1.10
2022-10-11T09:17:35.082Z,1.25
2022-10-11T09:20:22.718Z,1.20
2022-10-11T09:23:36.631Z,1.10
2022-10-11T09:26:09.883Z,1.40
2022-10-11T09:29:01.871Z,1.10
2022-10-11T09:31:29.549Z,1.35
2022-10-11T09:33:56.049Z,1.45
2022-10-11T09:36:27.343Z,1.25
2022-10-11T09:39:06.437Z,1.20
2022-10-11T09:41:58.824Z,1.02
2022-10-11T09:44:32.584Z,1.17
2022-10-11T09:46:59.447Z,1.00
2022-10-11T09:49:39.012Z,1.17
2022-10-11T09:52:11.196Z,1.10
2022-10-11T09:54:46.682Z,1.00
2022-10-11T09:57:28.136Z,1.20
2022-10-11T09:59:58.356Z,1.50
2022-10-11T10:02:25.004Z,1.33
2022-10-11T10:04:55.400Z,1.57
2022-10-11T10:07:22.125Z,1.35
2022-10-11T10:09:49.643Z,1.58
2022-10-11T10:12:22.258Z,1.50
2022-10-11T10:15:17.705Z,0.95
2022-10-11T10:17:51.858Z,1.10
2022-10-11T10:20:24.216Z,1.35
2022-10-11T10:22:51.732Z,1.20
2022-10-11T10:25:36.641Z,1.40
2022-10-11T10:28:19.249Z,1.45
2022-10-11T10:30:54.521Z,1.23
2022-10-11T10:33:27.400Z,1.38
2022-10-11T10:35:56.864Z,1.40
2022-10-11T10:38:35.235Z,1.42
2022-10-11T10:41:04.409Z,1.50
2022-10-11T10:43:36.209Z,1.30
2022-10-11T10:46:11.395Z,1.15
2022-10-11T10:49:28.369Z,1.55
2022-10-11T10:51:41.660Z,1.30
2022-10-11T10:54:24.671Z,1.10
2022-10-11T10:56:55.779Z,1.27
2022-10-11T10:59:49.562Z,1.20
2022-10-11T11:02:40.384Z,1.40
2022-10-11T11:05:31.685Z,1.40
2022-10-11T11:08:01.028Z,1.90
2022-10-11T11:10:36.611Z,1.00
2022-10-11T11:13:35.687Z,1.63
2022-10-11T11:16:26.547Z,1.17
2022-10-11T11:19:05.480Z,1.23
2022-10-11T11:21:48.038Z,1.00
2022-10-11T11:24:51.437Z,1.20
2022-10-11T11:27:46.691Z,0.88
2022-10-11T11:30:20.239Z,1.27
2022-10-11T11:33:03.880Z,1.30
2022-10-11T11:35:42.715Z,1.38
2022-10-11T11:38:27.148Z,1.27
2022-10-11T11:40:59.118Z,0.98
2022-10-11T11:43:36.835Z,1.30
2022-10-11T11:46:11.704Z,1.48
2022-10-11T11:48:39.062Z,1.33
2022-10-11T11:51:13.111Z,1.23
2022-10-11T11:53:49.897Z,1.40
2022-10-11T11:56:41.431Z,1.00
2022-10-11T11:59:20.188Z,1.38
2022-10-11T12:01:59.810Z,1.20
2022-10-11T12:04:30.749Z,1.10
2022-10-11T12:07:15.902Z,1.10
2022-10-11T12:09:46.558Z,1.38
2022-10-11T12:12:36.203Z,1.05
2022-10-11T12:15:26.104Z,1.10
2022-10-11T12:17:58.569Z,1.27
2022-10-11T12:20:40.691Z,1.10
2022-10-11T12:23:28.380Z,1.33
2022-10-11T12:26:19.267Z,1.17
2022-10-11T12:28:59.414Z,1.20
2022-10-11T12:31:35.640Z,1.50
2022-10-11T12:34:01.966Z,1.20
2022-10-11T12:36:29.581Z,1.25
2022-10-11T12:39:20.778Z,0.93
2022-10-11T12:41:47.049Z,1.35
2022-10-11T12:44:26.704Z,1.27
2022-10-11T12:46:59.254Z,1.40
2022-10-11T12:49:37.681Z,1.20
2022-10-11T12:52:28.353Z,1.48
2022-10-11T12:55:25.073Z,1.10
2022-10-11T12:58:28.635Z,1.03
2022-10-11T13:00:56.123Z,1.00
2022-10-11T13:03:32.495Z,1.10
2022-10-11T13:06:01.900Z,1.00
2022-10-11T13:08:36.473Z,1.20
2022-10-11T13:11:06.444Z,1.10
2022-10-11T13:13:44.315Z,1.27
2022-10-11T13:16:48.318Z,1.20
2022-10-11T13:19:15.105Z,0.95
2022-10-11T13:21:42.245Z,1.10
2022-10-11T13:24:14.365Z,0.80
2022-10-11T13:26:43.002Z,0.90
2022-10-11T13:29:23.941Z,1.02
2022-10-11T13:31:50.352Z,1.10
2022-10-11T13:34:22.380Z,1.02
2022-10-11T13:36:56.907Z,0.70
2022-10-11T13:39:35.026Z,0.80
2022-10-11T13:42:06.132Z,0.90
2022-10-11T13:44:33.837Z,0.90
2022-10-11T13:47:00.282Z,0.90
2022-10-11T13:49:37.209Z,1.20
2022-10-11T13:52:21.962Z,0.97
2022-10-11T13:55:00.732Z,1.00
2022-10-11T13:57:43.670Z,0.85
2022-10-11T14:00:22.332Z,0.90
2022-10-11T14:03:01.480Z,1.08
2022-10-11T14:05:35.402Z,0.83
2022-10-11T14:08:05.614Z,0.88
2022-10-11T14:10:32.805Z,1.05
2022-10-11T14:13:02.329Z,0.85
2022-10-11T14:15:38.377Z,0.75
2022-10-11T14:18:33.493Z,0.83
2022-10-11T14:21:27.930Z,1.13
2022-10-11T14:23:57.902Z,0.80
2022-10-11T14:26:25.740Z,1.05
2022-10-11T14:28:57.927Z,1.00
2022-10-11T14:31:25.026Z,0.83
2022-10-11T14:33:52.267Z,0.80
2022-10-11T14:36:18.633Z,0.75
2022-10-11T14:38:44.997Z,0.98
2022-10-11T14:41:11.380Z,0.90
2022-10-11T14:43:37.751Z,0.90
2022-10-11T14:46:05.284Z,1.20
2022-10-11T14:48:53.899Z,0.90
2022-10-11T14:51:25.149Z,0.77
2022-10-11T14:53:51.596Z,1.35
2022-10-11T14:56:21.520Z,0.80
2022-10-11T14:58:48.720Z,1.00
2022-10-11T15:01:16.336Z,1.15
2022-10-11T15:03:43.631Z,0.88
2022-10-11T15:06:17.711Z,1.05
2022-10-11T15:08:44.333Z,1.90
2022-10-11T15:11:12.646Z,1.40
2022-10-11T15:13:39.023Z,1.50
2022-10-11T15:16:05.955Z,1.30
2022-10-11T15:18:32.579Z,1.40
2022-10-11T15:21:00.448Z,1.83
2022-10-11T15:23:26.794Z,1.20
2022-10-11T15:25:53.347Z,0.95
2022-10-11T15:28:31.344Z,0.90
2022-10-11T15:30:58.644Z,1.30
2022-10-11T15:33:25.351Z,1.30
2022-10-11T15:35:52.427Z,1.20
2022-10-11T15:38:24.000Z,0.82
2022-10-11T15:40:51.643Z,0.93
2022-10-11T15:43:23.511Z,1.00
2022-10-11T15:45:51.178Z,1.10
2022-10-11T15:48:19.142Z,1.40
2022-10-11T15:50:45.879Z,1.30
2022-10-11T15:53:19.383Z,1.20
2022-10-11T15:55:51.703Z,1.20
2022-10-11T15:58:20.660Z,1.20
2022-10-11T16:00:48.573Z,0.85
2022-10-11T16:03:16.640Z,1.10
2022-10-11T16:05:43.926Z,0.80
2022-10-11T16:08:11.023Z,0.90
2022-10-11T16:10:38.528Z,1.00
2022-10-11T16:13:05.664Z,1.20
2022-10-11T16:15:32.035Z,1.00
2022-10-11T16:17:58.386Z,1.40
2022-10-11T16:20:25.744Z,1.17
2022-10-11T16:22:53.973Z,1.03
2022-10-11T16:25:21.195Z,1.35
2022-10-11T16:27:47.680Z,1.63
2022-10-11T16:30:15.380Z,1.70
2022-10-11T16:32:42.482Z,1.95
2022-10-11T16:35:10.896Z,2.50
2022-10-11T16:37:37.343Z,2.20
2022-10-11T16:40:05.478Z,2.20
2022-10-11T16:42:32.260Z,2.10
2022-10-11T16:44:59.075Z,2.00
2022-10-11T16:47:25.493Z,1.70
2022-10-11T16:49:51.922Z,1.80
2022-10-11T16:52:18.324Z,1.08
2022-10-11T16:54:49.288Z,1.55
2022-10-11T16:57:17.999Z,1.60
2022-10-11T16:59:44.532Z,1.40
2022-10-11T17:02:19.765Z,1.30
2022-10-11T17:04:46.430Z,1.48
2022-10-11T17:07:13.496Z,1.20
2022-10-11T17:09:43.910Z,1.10
2022-10-11T17:12:12.966Z,1.23
2022-10-11T17:14:40.863Z,1.20
2022-10-11T17:17:09.005Z,1.40
2022-10-11T17:19:39.222Z,1.70
2022-10-11T17:22:10.579Z,1.67
2022-10-11T17:24:38.079Z,1.87
2022-10-11T17:27:05.662Z,1.90
2022-10-11T17:29:32.429Z,1.88
2022-10-11T17:31:59.459Z,1.75
2022-10-11T17:34:25.854Z,1.98
2022-10-11T17:36:52.332Z,2.13
2022-10-11T17:39:22.291Z,1.80
2022-10-11T17:41:49.424Z,2.05
2022-10-11T17:44:17.973Z,1.65
2022-10-11T17:46:44.676Z,1.90
2022-10-11T17:49:12.275Z,1.70
2022-10-11T17:51:39.118Z,1.80
2022-10-11T17:54:06.161Z,1.95
2022-10-11T17:56:37.654Z,1.90
2022-10-11T17:59:04.832Z,1.70
2022-10-11T18:01:31.348Z,1.90
2022-10-11T18:04:00.061Z,1.80
2022-10-11T18:06:28.880Z,1.60
2022-10-11T18:08:57.113Z,2.00
2022-10-11T18:11:23.863Z,1.75
2022-10-11T18:13:52.376Z,2.10
2022-10-11T18:16:22.348Z,1.70
2022-10-11T18:18:48.942Z,1.40
2022-10-11T18:21:16.121Z,1.75
2022-10-11T18:23:42.483Z,1.70
2022-10-11T18:26:13.946Z,1.83
2022-10-11T18:28:41.230Z,1.73
2022-10-11T18:31:14.312Z,1.40
2022-10-11T18:33:41.779Z,2.10
2022-10-11T18:36:09.330Z,2.58
2022-10-11T18:38:37.871Z,2.90
2022-10-11T18:41:06.364Z,2.55
2022-10-11T18:43:33.463Z,2.60
2022-10-11T18:46:12.276Z,2.33
2022-10-11T18:48:43.676Z,3.45
2022-10-11T18:51:16.148Z,3.50
2022-10-11T18:53:42.514Z,3.83
2022-10-11T18:56:10.526Z,4.07
2022-10-11T18:58:38.231Z,3.85
2022-10-11T19:01:06.963Z,4.20
2022-10-11T19:03:35.261Z,7.30
2022-10-11T19:06:04.537Z,7.00
2022-10-11T19:08:31.828Z,5.70
2022-10-11T19:11:06.052Z,5.22
2022-10-11T19:13:32.918Z,5.15
2022-10-11T19:16:04.558Z,4.17
2022-10-11T19:18:31.185Z,3.85
2022-10-11T19:21:01.326Z,3.70
2022-10-11T19:23:30.942Z,3.90
2022-10-11T19:25:57.684Z,3.05
2022-10-11T19:28:24.193Z,3.17
2022-10-11T19:30:50.792Z,3.83
2022-10-11T19:33:17.149Z,4.60
2022-10-11T19:35:54.228Z,4.70
2022-10-11T19:40:52.057Z,5.10
2022-10-11T19:43:18.455Z,5.03
2022-10-11T19:45:44.871Z,4.95
2022-10-11T19:48:11.689Z,4.97
2022-10-11T19:50:38.167Z,5.43
2022-10-11T19:53:04.958Z,5.50
2022-10-11T19:55:34.031Z,5.97
2022-10-11T19:58:04.530Z,5.18
2022-10-11T20:00:33.736Z,5.40
2022-10-11T20:03:01.177Z,5.30
2022-10-11T20:05:27.514Z,5.40
2022-10-11T20:07:53.925Z,5.30
2022-10-11T20:10:20.265Z,5.60
2022-10-11T20:12:46.701Z,6.05
2022-10-11T20:15:13.046Z,5.97
2022-10-11T20:17:48.235Z,6.23
2022-10-11T20:20:19.098Z,5.70
2022-10-11T20:22:45.455Z,5.82
2022-10-11T20:25:11.960Z,5.72
2022-10-11T20:27:38.438Z,5.50
2022-10-11T20:30:05.338Z,4.70
2022-10-11T20:32:31.672Z,4.80
2022-10-11T20:34:58.049Z,4.50
2022-10-11T20:37:24.377Z,4.18
2022-10-11T20:39:50.968Z,4.32
2022-10-11T20:42:17.321Z,4.17
2022-10-11T20:44:44.456Z,3.70
2022-10-11T20:47:10.878Z,4.40
2022-10-11T20:49:37.246Z,3.85
2022-10-11T20:52:03.599Z,4.20
2022-10-11T20:54:30.557Z,4.70
2022-10-11T20:56:57.578Z,3.80
2022-10-11T20:59:24.093Z,3.95
2022-10-11T21:01:50.475Z,3.65
2022-10-11T21:04:19.487Z,3.97
2022-10-11T21:06:47.806Z,4.73
2022-10-11T21:09:16.735Z,4.38
2022-10-11T21:11:43.439Z,4.30
2022-10-11T21:14:09.828Z,4.28
2022-10-11T21:16:36.563Z,4.20
2022-10-11T21:19:03.023Z,4.37
2022-10-11T21:21:29.622Z,5.00
2022-10-11T21:23:57.905Z,6.05
2022-10-11T21:26:24.882Z,5.55
2022-10-11T21:28:51.323Z,5.40
2022-10-11T21:31:19.675Z,5.63
2022-10-11T21:33:46.219Z,5.22
2022-10-11T21:36:21.364Z,6.32
2022-10-11T21:38:49.593Z,6.55
2022-10-11T21:41:19.043Z,8.60
2022-10-11T21:43:45.817Z,7.00
2022-10-11T21:46:15.862Z,6.57
2022-10-11T21:48:42.391Z,7.70
2022-10-11T21:53:46.644Z,8.48
2022-10-11T21:56:12.991Z,9.47
2022-10-11T21:58:39.391Z,9.90
2022-10-11T22:01:05.977Z,8.40
2022-10-11T22:03:32.386Z,7.40
2022-10-11T22:06:02.454Z,7.30
2022-10-11T22:08:29.637Z,7.40
2022-10-11T22:10:58.116Z,7.15
2022-10-11T22:13:25.912Z,7.90
2022-10-11T22:15:52.398Z,6.65
2022-10-11T22:18:19.266Z,7.43
2022-10-11T22:20:45.600Z,6.60
2022-10-11T22:23:12.022Z,5.53
2022-10-11T22:25:39.092Z,5.65
2022-10-11T22:28:05.904Z,5.88
2022-10-11T22:30:32.311Z,4.85
2022-10-11T22:32:58.736Z,4.30
2022-10-11T22:35:25.119Z,3.83
2022-10-11T22:37:51.954Z,3.60
2022-10-11T22:40:19.719Z,3.72
2022-10-11T22:42:46.108Z,3.85
2022-10-11T22:45:12.564Z,3.60
2022-10-11T22:47:39.093Z,3.63
2022-10-11T22:50:05.886Z,3.17
2022-10-11T22:52:32.234Z,2.92
2022-10-11T22:54:58.580Z,2.20
2022-10-11T22:57:25.133Z,2.27
2022-10-11T22:59:51.545Z,2.45
2022-10-11T23:02:17.930Z,1.95
2022-10-11T23:04:44.266Z,1.92
2022-10-11T23:07:10.640Z,2.30
2022-10-11T23:09:37.015Z,1.80
2022-10-11T23:12:03.516Z,2.03
2022-10-11T23:14:29.871Z,2.42
2022-10-11T23:16:56.201Z,2.40
2022-10-11T23:19:22.536Z,3.17
2022-10-11T23:21:49.260Z,2.53
2022-10-11T23:24:15.642Z,2.22
2022-10-11T23:26:41.967Z,2.45
2022-10-11T23:29:08.370Z,2.72
2022-10-11T23:31:34.707Z,2.95
2022-10-11T23:34:01.035Z,2.37
2022-10-11T23:36:27.448Z,3.00
2022-10-11T23:38:56.495Z,4.03
2022-10-11T23:41:25.286Z,4.13
2022-10-11T23:43:52.114Z,4.18
2022-10-11T23:46:18.455Z,5.60
2022-10-11T23:48:45.063Z,4.82
2022-10-11T23:51:11.799Z,5.68
2022-10-11T23:53:38.203Z,5.60
2022-10-11T23:56:05.673Z,5.55
2022-10-11T23:58:32.124Z,5.07
